LFBT/LDE METAR and TAF weather

Enter ICAO airport designator
Station Type Date Time Source
LFBT METAR 2018/12/11 20:00 UTC NOAA

LFBT 112000Z AUTO 18003KT CAVOK 03/02 Q1020 NOSIG


Station Type Date Time Source
LFBT Decoded METAR 2018/12/11 20:00 UTC NOAA

Tarbes Ossun Lourdes, France (LFBT) 43-11N 000-00W 363M
Dec 11, 2018 - 03:00 PM EST / 2018.12.11 2000 UTC
Wind: from the S (180 degrees) at 3 MPH (3 KT):0
Visibility: greater than 7 mile(s):0
Temperature: 37 F (3 C)
Dew Point: 35 F (2 C)
Relative Humidity: 93%
Pressure (altimeter): 30.12 in. Hg (1020 hPa)
ob: LFBT 112000Z AUTO 18003KT CAVOK 03/02 Q1020 NOSIG
cycle: 20

Station Type Date Time Source
LFBT TAF 2018/12/11 18:21 UTC NOAA

TAF LFBT 111700Z 1118/1218 VRB02KT CAVOK
BECMG 1204/1206 27010KT 4000 -RA OVC010
BECMG 1209/1210 9999 NSW SCT030 PROB30
TEMPO 1209/1216 4000 SHRA BKN020TCU


Example: see airport list